sensor_id;sensor_type;location;lat;lon;timestamp;P1;durP1;ratioP1;P2;durP2;ratioP2
52067;SDS011;60237;52.338;21.228;2024-02-26T00:00:27;63.35;;;13.52;;
52067;SDS011;60237;52.338;21.228;2024-02-26T00:02:55;69.95;;;14.57;;
52067;SDS011;60237;52.338;21.228;2024-02-26T00:05:21;99.13;;;15.02;;
52067;SDS011;60237;52.338;21.228;2024-02-26T00:07:48;62.10;;;13.05;;
52067;SDS011;60237;52.338;21.228;2024-02-26T00:10:15;44.30;;;11.60;;
52067;SDS011;60237;52.338;21.228;2024-02-26T00:12:42;80.13;;;14.43;;
52067;SDS011;60237;52.338;21.228;2024-02-26T00:15:09;66.95;;;14.02;;
52067;SDS011;60237;52.338;21.228;2024-02-26T00:17:36;91.15;;;14.52;;
52067;SDS011;60237;52.338;21.228;2024-02-26T00:20:03;89.60;;;15.10;;
52067;SDS011;60237;52.338;21.228;2024-02-26T00:22:34;78.55;;;14.25;;
52067;SDS011;60237;52.338;21.228;2024-02-26T00:25:01;78.38;;;14.68;;
52067;SDS011;60237;52.338;21.228;2024-02-26T00:27:28;81.88;;;15.82;;
52067;SDS011;60237;52.338;21.228;2024-02-26T00:29:54;60.75;;;13.48;;
52067;SDS011;60237;52.338;21.228;2024-02-26T00:32:21;50.15;;;14.00;;
52067;SDS011;60237;52.338;21.228;2024-02-26T00:34:47;85.97;;;14.52;;
52067;SDS011;60237;52.338;21.228;2024-02-26T00:37:14;49.75;;;13.85;;
52067;SDS011;60237;52.338;21.228;2024-02-26T00:39:40;66.97;;;14.13;;
52067;SDS011;60237;52.338;21.228;2024-02-26T00:42:07;82.53;;;14.23;;
52067;SDS011;60237;52.338;21.228;2024-02-26T00:44:34;64.88;;;14.05;;
52067;SDS011;60237;52.338;21.228;2024-02-26T00:47:01;50.53;;;11.90;;
52067;SDS011;60237;52.338;21.228;2024-02-26T00:49:28;110.75;;;17.50;;
52067;SDS011;60237;52.338;21.228;2024-02-26T00:51:54;57.00;;;13.50;;
52067;SDS011;60237;52.338;21.228;2024-02-26T00:54:22;67.70;;;13.70;;
52067;SDS011;60237;52.338;21.228;2024-02-26T00:56:49;86.43;;;14.73;;
52067;SDS011;60237;52.338;21.228;2024-02-26T00:59:15;97.88;;;15.63;;
52067;SDS011;60237;52.338;21.228;2024-02-26T01:01:42;50.78;;;12.75;;
52067;SDS011;60237;52.338;21.228;2024-02-26T01:04:08;81.35;;;14.02;;
52067;SDS011;60237;52.338;21.228;2024-02-26T01:06:35;74.65;;;13.20;;
52067;SDS011;60237;52.338;21.228;2024-02-26T01:09:02;58.38;;;13.23;;
52067;SDS011;60237;52.338;21.228;2024-02-26T01:11:29;85.68;;;14.63;;
52067;SDS011;60237;52.338;21.228;2024-02-26T01:13:56;90.43;;;14.57;;
52067;SDS011;60237;52.338;21.228;2024-02-26T01:16:23;63.45;;;13.43;;
52067;SDS011;60237;52.338;21.228;2024-02-26T01:18:50;69.18;;;14.02;;
52067;SDS011;60237;52.338;21.228;2024-02-26T01:21:16;68.68;;;14.15;;
52067;SDS011;60237;52.338;21.228;2024-02-26T01:23:45;52.75;;;13.77;;
52067;SDS011;60237;52.338;21.228;2024-02-26T01:26:12;58.40;;;13.68;;
52067;SDS011;60237;52.338;21.228;2024-02-26T01:28:38;74.47;;;15.02;;
52067;SDS011;60237;52.338;21.228;2024-02-26T01:31:05;72.05;;;15.82;;
52067;SDS011;60237;52.338;21.228;2024-02-26T01:33:34;117.72;;;17.38;;
52067;SDS011;60237;52.338;21.228;2024-02-26T01:36:01;86.30;;;14.98;;
52067;SDS011;60237;52.338;21.228;2024-02-26T01:38:27;72.18;;;15.02;;
52067;SDS011;60237;52.338;21.228;2024-02-26T01:40:54;91.97;;;15.63;;
52067;SDS011;60237;52.338;21.228;2024-02-26T01:43:21;56.65;;;12.75;;
52067;SDS011;60237;52.338;21.228;2024-02-26T01:45:47;70.57;;;14.95;;
52067;SDS011;60237;52.338;21.228;2024-02-26T01:48:14;73.50;;;15.73;;
52067;SDS011;60237;52.338;21.228;2024-02-26T01:50:40;105.07;;;17.88;;
52067;SDS011;60237;52.338;21.228;2024-02-26T01:53:07;97.40;;;18.00;;
52067;SDS011;60237;52.338;21.228;2024-02-26T01:55:34;80.97;;;16.08;;
52067;SDS011;60237;52.338;21.228;2024-02-26T01:58:01;82.85;;;16.42;;
52067;SDS011;60237;52.338;21.228;2024-02-26T02:00:27;110.72;;;19.30;;
52067;SDS011;60237;52.338;21.228;2024-02-26T02:02:54;83.70;;;17.10;;
52067;SDS011;60237;52.338;21.228;2024-02-26T02:05:21;93.55;;;18.13;;
52067;SDS011;60237;52.338;21.228;2024-02-26T02:07:48;78.07;;;17.15;;
52067;SDS011;60237;52.338;21.228;2024-02-26T02:10:15;65.85;;;17.13;;
52067;SDS011;60237;52.338;21.228;2024-02-26T02:12:44;117.57;;;18.95;;
52067;SDS011;60237;52.338;21.228;2024-02-26T02:15:11;60.85;;;16.30;;
52067;SDS011;60237;52.338;21.228;2024-02-26T02:17:37;105.85;;;19.67;;
52067;SDS011;60237;52.338;21.228;2024-02-26T02:20:07;69.40;;;17.23;;
52067;SDS011;60237;52.338;21.228;2024-02-26T02:22:34;124.78;;;19.45;;
52067;SDS011;60237;52.338;21.228;2024-02-26T02:25:00;107.55;;;18.40;;
52067;SDS011;60237;52.338;21.228;2024-02-26T02:27:27;95.55;;;18.55;;
52067;SDS011;60237;52.338;21.228;2024-02-26T02:29:55;68.38;;;17.30;;
52067;SDS011;60237;52.338;21.228;2024-02-26T02:32:21;78.97;;;19.65;;
52067;SDS011;60237;52.338;21.228;2024-02-26T02:34:48;89.10;;;19.25;;
52067;SDS011;60237;52.338;21.228;2024-02-26T02:37:15;99.20;;;19.02;;
52067;SDS011;60237;52.338;21.228;2024-02-26T02:39:41;111.43;;;19.13;;
52067;SDS011;60237;52.338;21.228;2024-02-26T02:42:09;75.07;;;17.88;;
52067;SDS011;60237;52.338;21.228;2024-02-26T02:44:37;77.03;;;17.13;;
52067;SDS011;60237;52.338;21.228;2024-02-26T02:47:03;72.30;;;16.98;;
52067;SDS011;60237;52.338;21.228;2024-02-26T02:49:30;98.90;;;17.77;;
52067;SDS011;60237;52.338;21.228;2024-02-26T02:51:56;63.50;;;14.77;;
52067;SDS011;60237;52.338;21.228;2024-02-26T02:54:24;61.60;;;13.88;;
52067;SDS011;60237;52.338;21.228;2024-02-26T02:56:50;73.03;;;16.60;;
52067;SDS011;60237;52.338;21.228;2024-02-26T02:59:17;89.05;;;16.17;;
52067;SDS011;60237;52.338;21.228;2024-02-26T03:01:43;69.75;;;16.35;;
52067;SDS011;60237;52.338;21.228;2024-02-26T03:04:10;81.85;;;18.08;;
52067;SDS011;60237;52.338;21.228;2024-02-26T03:06:36;72.75;;;16.95;;
52067;SDS011;60237;52.338;21.228;2024-02-26T03:09:03;83.70;;;16.63;;
52067;SDS011;60237;52.338;21.228;2024-02-26T03:11:30;120.03;;;19.10;;
52067;SDS011;60237;52.338;21.228;2024-02-26T03:13:57;50.83;;;14.52;;
52067;SDS011;60237;52.338;21.228;2024-02-26T03:16:23;77.05;;;16.35;;
52067;SDS011;60237;52.338;21.228;2024-02-26T03:18:50;78.13;;;16.05;;
52067;SDS011;60237;52.338;21.228;2024-02-26T03:21:17;64.45;;;15.38;;
52067;SDS011;60237;52.338;21.228;2024-02-26T03:23:44;88.38;;;17.00;;
52067;SDS011;60237;52.338;21.228;2024-02-26T03:26:11;260.23;;;26.95;;
52067;SDS011;60237;52.338;21.228;2024-02-26T03:28:40;58.03;;;14.07;;
52067;SDS011;60237;52.338;21.228;2024-02-26T03:31:07;89.30;;;16.70;;
52067;SDS011;60237;52.338;21.228;2024-02-26T03:33:34;155.07;;;20.73;;
52067;SDS011;60237;52.338;21.228;2024-02-26T03:36:00;112.15;;;18.73;;
52067;SDS011;60237;52.338;21.228;2024-02-26T03:38:28;54.55;;;16.17;;
52067;SDS011;60237;52.338;21.228;2024-02-26T03:40:55;94.20;;;17.42;;
52067;SDS011;60237;52.338;21.228;2024-02-26T03:43:21;69.10;;;16.15;;
52067;SDS011;60237;52.338;21.228;2024-02-26T03:45:48;69.55;;;16.20;;
52067;SDS011;60237;52.338;21.228;2024-02-26T03:48:14;96.88;;;17.25;;
52067;SDS011;60237;52.338;21.228;2024-02-26T03:50:41;72.95;;;15.82;;
52067;SDS011;60237;52.338;21.228;2024-02-26T03:53:08;89.95;;;18.05;;
52067;SDS011;60237;52.338;21.228;2024-02-26T03:55:39;106.70;;;18.25;;
52067;SDS011;60237;52.338;21.228;2024-02-26T03:58:08;74.72;;;17.08;;
52067;SDS011;60237;52.338;21.228;2024-02-26T04:00:35;86.10;;;16.42;;
52067;SDS011;60237;52.338;21.228;2024-02-26T04:03:02;119.63;;;17.70;;
52067;SDS011;60237;52.338;21.228;2024-02-26T04:05:29;88.45;;;17.80;;
52067;SDS011;60237;52.338;21.228;2024-02-26T04:07:55;90.28;;;16.83;;
52067;SDS011;60237;52.338;21.228;2024-02-26T04:10:22;93.55;;;17.35;;
52067;SDS011;60237;52.338;21.228;2024-02-26T04:12:48;104.00;;;17.70;;
52067;SDS011;60237;52.338;21.228;2024-02-26T04:15:15;77.40;;;15.95;;
52067;SDS011;60237;52.338;21.228;2024-02-26T04:17:41;98.85;;;18.88;;
52067;SDS011;60237;52.338;21.228;2024-02-26T04:20:12;73.60;;;15.98;;
52067;SDS011;60237;52.338;21.228;2024-02-26T04:22:39;111.30;;;18.35;;
52067;SDS011;60237;52.338;21.228;2024-02-26T04:25:05;105.00;;;18.75;;
52067;SDS011;60237;52.338;21.228;2024-02-26T04:27:32;81.22;;;18.13;;
52067;SDS011;60237;52.338;21.228;2024-02-26T04:29:58;87.70;;;17.45;;
52067;SDS011;60237;52.338;21.228;2024-02-26T04:32:25;110.75;;;19.50;;
52067;SDS011;60237;52.338;21.228;2024-02-26T04:34:52;120.03;;;22.33;;
52067;SDS011;60237;52.338;21.228;2024-02-26T04:37:18;122.45;;;20.95;;
52067;SDS011;60237;52.338;21.228;2024-02-26T04:39:45;108.93;;;22.00;;
52067;SDS011;60237;52.338;21.228;2024-02-26T04:42:16;89.15;;;20.92;;
52067;SDS011;60237;52.338;21.228;2024-02-26T04:44:42;78.85;;;18.27;;
52067;SDS011;60237;52.338;21.228;2024-02-26T04:47:09;85.90;;;18.90;;
52067;SDS011;60237;52.338;21.228;2024-02-26T04:49:35;82.20;;;18.70;;
52067;SDS011;60237;52.338;21.228;2024-02-26T04:52:02;71.18;;;15.63;;
52067;SDS011;60237;52.338;21.228;2024-02-26T04:54:29;88.25;;;18.45;;
52067;SDS011;60237;52.338;21.228;2024-02-26T04:56:55;88.03;;;16.38;;
52067;SDS011;60237;52.338;21.228;2024-02-26T04:59:22;86.55;;;18.60;;
52067;SDS011;60237;52.338;21.228;2024-02-26T05:01:48;75.28;;;17.20;;
52067;SDS011;60237;52.338;21.228;2024-02-26T05:04:15;131.70;;;20.90;;
52067;SDS011;60237;52.338;21.228;2024-02-26T05:06:42;87.43;;;19.60;;
52067;SDS011;60237;52.338;21.228;2024-02-26T05:09:08;119.68;;;22.00;;
52067;SDS011;60237;52.338;21.228;2024-02-26T05:11:35;86.78;;;20.58;;
52067;SDS011;60237;52.338;21.228;2024-02-26T05:14:03;118.72;;;23.92;;
52067;SDS011;60237;52.338;21.228;2024-02-26T05:16:29;148.98;;;26.27;;
52067;SDS011;60237;52.338;21.228;2024-02-26T05:18:57;80.85;;;22.90;;
52067;SDS011;60237;52.338;21.228;2024-02-26T05:21:24;110.45;;;24.80;;
52067;SDS011;60237;52.338;21.228;2024-02-26T05:23:51;86.82;;;23.33;;
52067;SDS011;60237;52.338;21.228;2024-02-26T05:26:21;96.25;;;22.98;;
52067;SDS011;60237;52.338;21.228;2024-02-26T05:28:48;69.28;;;21.63;;
52067;SDS011;60237;52.338;21.228;2024-02-26T05:31:14;108.07;;;22.52;;
52067;SDS011;60237;52.338;21.228;2024-02-26T05:33:41;69.57;;;19.70;;
52067;SDS011;60237;52.338;21.228;2024-02-26T05:36:08;104.68;;;23.35;;
52067;SDS011;60237;52.338;21.228;2024-02-26T05:38:35;118.60;;;22.90;;
52067;SDS011;60237;52.338;21.228;2024-02-26T05:41:02;77.55;;;19.52;;
52067;SDS011;60237;52.338;21.228;2024-02-26T05:43:29;96.50;;;22.20;;
52067;SDS011;60237;52.338;21.228;2024-02-26T05:45:56;95.03;;;22.10;;
52067;SDS011;60237;52.338;21.228;2024-02-26T05:48:22;98.32;;;21.83;;
52067;SDS011;60237;52.338;21.228;2024-02-26T05:50:49;77.15;;;20.13;;
52067;SDS011;60237;52.338;21.228;2024-02-26T05:53:15;119.50;;;22.42;;
52067;SDS011;60237;52.338;21.228;2024-02-26T05:55:42;117.15;;;22.15;;
52067;SDS011;60237;52.338;21.228;2024-02-26T05:58:08;68.82;;;19.27;;
52067;SDS011;60237;52.338;21.228;2024-02-26T06:00:35;107.05;;;19.65;;
52067;SDS011;60237;52.338;21.228;2024-02-26T06:03:02;93.25;;;20.23;;
52067;SDS011;60237;52.338;21.228;2024-02-26T06:05:28;111.03;;;20.65;;
52067;SDS011;60237;52.338;21.228;2024-02-26T06:07:55;80.03;;;18.10;;
52067;SDS011;60237;52.338;21.228;2024-02-26T06:10:21;81.15;;;19.25;;
52067;SDS011;60237;52.338;21.228;2024-02-26T06:12:48;86.22;;;18.83;;
52067;SDS011;60237;52.338;21.228;2024-02-26T06:15:14;118.68;;;19.75;;
52067;SDS011;60237;52.338;21.228;2024-02-26T06:17:41;127.78;;;21.85;;
52067;SDS011;60237;52.338;21.228;2024-02-26T06:20:08;103.80;;;18.35;;
52067;SDS011;60237;52.338;21.228;2024-02-26T06:22:40;94.95;;;18.70;;
52067;SDS011;60237;52.338;21.228;2024-02-26T06:25:07;86.15;;;18.80;;
52067;SDS011;60237;52.338;21.228;2024-02-26T06:27:34;106.47;;;19.67;;
52067;SDS011;60237;52.338;21.228;2024-02-26T06:30:00;96.70;;;20.38;;
52067;SDS011;60237;52.338;21.228;2024-02-26T06:32:27;88.40;;;19.17;;
52067;SDS011;60237;52.338;21.228;2024-02-26T06:34:55;91.68;;;19.48;;
52067;SDS011;60237;52.338;21.228;2024-02-26T06:37:23;116.40;;;21.40;;
52067;SDS011;60237;52.338;21.228;2024-02-26T06:39:49;116.13;;;23.88;;
52067;SDS011;60237;52.338;21.228;2024-02-26T06:42:18;74.53;;;21.27;;
52067;SDS011;60237;52.338;21.228;2024-02-26T06:44:45;86.13;;;19.83;;
52067;SDS011;60237;52.338;21.228;2024-02-26T06:47:11;88.15;;;19.90;;
52067;SDS011;60237;52.338;21.228;2024-02-26T06:49:38;77.75;;;18.67;;
52067;SDS011;60237;52.338;21.228;2024-02-26T06:52:05;70.95;;;19.50;;
52067;SDS011;60237;52.338;21.228;2024-02-26T06:54:32;89.68;;;20.45;;
52067;SDS011;60237;52.338;21.228;2024-02-26T06:56:59;72.07;;;17.77;;
52067;SDS011;60237;52.338;21.228;2024-02-26T06:59:27;91.85;;;18.30;;
52067;SDS011;60237;52.338;21.228;2024-02-26T07:01:54;71.20;;;18.23;;
52067;SDS011;60237;52.338;21.228;2024-02-26T07:04:21;78.88;;;19.63;;
52067;SDS011;60237;52.338;21.228;2024-02-26T07:06:47;74.20;;;19.58;;
52067;SDS011;60237;52.338;21.228;2024-02-26T07:09:14;90.03;;;20.55;;
52067;SDS011;60237;52.338;21.228;2024-02-26T07:11:42;59.55;;;18.23;;
52067;SDS011;60237;52.338;21.228;2024-02-26T07:14:09;65.28;;;19.00;;
52067;SDS011;60237;52.338;21.228;2024-02-26T07:16:36;83.88;;;18.45;;
52067;SDS011;60237;52.338;21.228;2024-02-26T07:19:03;82.05;;;18.13;;
52067;SDS011;60237;52.338;21.228;2024-02-26T07:21:30;107.70;;;19.52;;
52067;SDS011;60237;52.338;21.228;2024-02-26T07:23:57;78.13;;;15.73;;
52067;SDS011;60237;52.338;21.228;2024-02-26T07:26:24;60.40;;;14.20;;
52067;SDS011;60237;52.338;21.228;2024-02-26T07:28:52;62.50;;;13.73;;
52067;SDS011;60237;52.338;21.228;2024-02-26T07:31:19;74.35;;;14.50;;
52067;SDS011;60237;52.338;21.228;2024-02-26T07:33:45;80.30;;;13.88;;
52067;SDS011;60237;52.338;21.228;2024-02-26T07:36:12;64.22;;;13.65;;
52067;SDS011;60237;52.338;21.228;2024-02-26T07:38:39;97.63;;;14.88;;
52067;SDS011;60237;52.338;21.228;2024-02-26T07:41:09;60.72;;;12.30;;
52067;SDS011;60237;52.338;21.228;2024-02-26T07:43:36;60.30;;;11.90;;
52067;SDS011;60237;52.338;21.228;2024-02-26T07:46:03;65.47;;;12.75;;
52067;SDS011;60237;52.338;21.228;2024-02-26T07:48:29;79.38;;;14.13;;
52067;SDS011;60237;52.338;21.228;2024-02-26T07:50:56;89.63;;;14.25;;
52067;SDS011;60237;52.338;21.228;2024-02-26T07:53:25;74.78;;;13.93;;
52067;SDS011;60237;52.338;21.228;2024-02-26T07:55:52;74.40;;;13.60;;
52067;SDS011;60237;52.338;21.228;2024-02-26T07:58:18;84.82;;;14.07;;
52067;SDS011;60237;52.338;21.228;2024-02-26T08:00:45;80.25;;;15.80;;
52067;SDS011;60237;52.338;21.228;2024-02-26T08:03:13;58.85;;;11.48;;
52067;SDS011;60237;52.338;21.228;2024-02-26T08:05:42;92.28;;;13.73;;
52067;SDS011;60237;52.338;21.228;2024-02-26T08:08:09;77.47;;;12.77;;
52067;SDS011;60237;52.338;21.228;2024-02-26T08:10:36;98.72;;;14.40;;
52067;SDS011;60237;52.338;21.228;2024-02-26T08:13:03;57.90;;;11.63;;
52067;SDS011;60237;52.338;21.228;2024-02-26T08:15:32;82.60;;;13.90;;
52067;SDS011;60237;52.338;21.228;2024-02-26T08:18:01;60.78;;;12.75;;
52067;SDS011;60237;52.338;21.228;2024-02-26T08:20:30;76.15;;;12.80;;
52067;SDS011;60237;52.338;21.228;2024-02-26T08:22:57;130.85;;;16.23;;
52067;SDS011;60237;52.338;21.228;2024-02-26T08:25:23;60.33;;;12.20;;
52067;SDS011;60237;52.338;21.228;2024-02-26T08:27:50;55.80;;;11.27;;
52067;SDS011;60237;52.338;21.228;2024-02-26T08:30:17;76.68;;;13.95;;
52067;SDS011;60237;52.338;21.228;2024-02-26T08:32:44;77.68;;;13.38;;
52067;SDS011;60237;52.338;21.228;2024-02-26T08:35:13;87.65;;;14.32;;
52067;SDS011;60237;52.338;21.228;2024-02-26T08:37:40;67.88;;;12.43;;
52067;SDS011;60237;52.338;21.228;2024-02-26T08:40:07;63.85;;;13.52;;
52067;SDS011;60237;52.338;21.228;2024-02-26T08:42:37;84.28;;;13.10;;
52067;SDS011;60237;52.338;21.228;2024-02-26T08:45:04;57.58;;;11.93;;
52067;SDS011;60237;52.338;21.228;2024-02-26T08:47:30;70.93;;;12.15;;
52067;SDS011;60237;52.338;21.228;2024-02-26T08:49:57;64.65;;;11.55;;
52067;SDS011;60237;52.338;21.228;2024-02-26T08:52:24;66.43;;;11.55;;
52067;SDS011;60237;52.338;21.228;2024-02-26T08:54:51;54.70;;;10.90;;
52067;SDS011;60237;52.338;21.228;2024-02-26T08:57:17;61.58;;;11.73;;
52067;SDS011;60237;52.338;21.228;2024-02-26T08:59:44;40.65;;;9.55;;
52067;SDS011;60237;52.338;21.228;2024-02-26T09:02:10;51.20;;;10.70;;
52067;SDS011;60237;52.338;21.228;2024-02-26T09:04:37;87.75;;;12.45;;
52067;SDS011;60237;52.338;21.228;2024-02-26T09:07:04;51.13;;;11.55;;
52067;SDS011;60237;52.338;21.228;2024-02-26T09:09:30;64.93;;;12.25;;
52067;SDS011;60237;52.338;21.228;2024-02-26T09:11:57;81.18;;;12.52;;
52067;SDS011;60237;52.338;21.228;2024-02-26T09:14:25;64.53;;;11.43;;
52067;SDS011;60237;52.338;21.228;2024-02-26T09:16:53;83.43;;;12.45;;
52067;SDS011;60237;52.338;21.228;2024-02-26T09:19:20;83.70;;;12.55;;
52067;SDS011;60237;52.338;21.228;2024-02-26T09:21:47;77.43;;;11.85;;
52067;SDS011;60237;52.338;21.228;2024-02-26T09:24:13;50.85;;;11.00;;
52067;SDS011;60237;52.338;21.228;2024-02-26T09:26:41;102.50;;;13.30;;
52067;SDS011;60237;52.338;21.228;2024-02-26T09:29:08;101.15;;;12.45;;
52067;SDS011;60237;52.338;21.228;2024-02-26T09:31:35;49.40;;;9.88;;
52067;SDS011;60237;52.338;21.228;2024-02-26T09:34:01;57.13;;;10.57;;
52067;SDS011;60237;52.338;21.228;2024-02-26T09:36:29;63.10;;;10.63;;
52067;SDS011;60237;52.338;21.228;2024-02-26T09:38:56;33.42;;;7.88;;
52067;SDS011;60237;52.338;21.228;2024-02-26T09:41:30;91.65;;;11.35;;
52067;SDS011;60237;52.338;21.228;2024-02-26T09:43:57;58.13;;;10.00;;
52067;SDS011;60237;52.338;21.228;2024-02-26T09:46:26;46.22;;;9.63;;
52067;SDS011;60237;52.338;21.228;2024-02-26T09:48:53;62.25;;;9.57;;
52067;SDS011;60237;52.338;21.228;2024-02-26T09:51:20;72.78;;;12.35;;
52067;SDS011;60237;52.338;21.228;2024-02-26T09:53:49;67.05;;;12.73;;
52067;SDS011;60237;52.338;21.228;2024-02-26T09:56:17;84.93;;;14.27;;
52067;SDS011;60237;52.338;21.228;2024-02-26T09:58:44;49.70;;;12.93;;
52067;SDS011;60237;52.338;21.228;2024-02-26T10:01:15;107.93;;;15.35;;
52067;SDS011;60237;52.338;21.228;2024-02-26T10:03:42;79.78;;;14.07;;
52067;SDS011;60237;52.338;21.228;2024-02-26T10:06:12;70.68;;;13.63;;
52067;SDS011;60237;52.338;21.228;2024-02-26T10:08:39;64.57;;;13.27;;
52067;SDS011;60237;52.338;21.228;2024-02-26T10:11:09;69.43;;;13.10;;
52067;SDS011;60237;52.338;21.228;2024-02-26T10:13:36;60.63;;;11.80;;
52067;SDS011;60237;52.338;21.228;2024-02-26T10:16:03;42.22;;;10.95;;
52067;SDS011;60237;52.338;21.228;2024-02-26T10:18:52;81.05;;;12.60;;
52067;SDS011;60237;52.338;21.228;2024-02-26T10:21:25;86.85;;;13.18;;
52067;SDS011;60237;52.338;21.228;2024-02-26T10:23:52;67.57;;;11.23;;
52067;SDS011;60237;52.338;21.228;2024-02-26T10:26:19;36.80;;;9.63;;
52067;SDS011;60237;52.338;21.228;2024-02-26T10:28:46;50.70;;;9.82;;
52067;SDS011;60237;52.338;21.228;2024-02-26T10:31:16;61.70;;;10.68;;
52067;SDS011;60237;52.338;21.228;2024-02-26T10:33:43;58.60;;;10.45;;
52067;SDS011;60237;52.338;21.228;2024-02-26T10:36:11;76.40;;;11.45;;
52067;SDS011;60237;52.338;21.228;2024-02-26T10:38:38;49.10;;;9.30;;
52067;SDS011;60237;52.338;21.228;2024-02-26T10:41:05;45.65;;;9.45;;
52067;SDS011;60237;52.338;21.228;2024-02-26T10:43:32;116.40;;;13.73;;
52067;SDS011;60237;52.338;21.228;2024-02-26T10:45:59;80.75;;;11.63;;
52067;SDS011;60237;52.338;21.228;2024-02-26T10:48:25;51.35;;;9.35;;
52067;SDS011;60237;52.338;21.228;2024-02-26T10:50:52;66.30;;;9.82;;
52067;SDS011;60237;52.338;21.228;2024-02-26T10:53:22;86.95;;;11.73;;
52067;SDS011;60237;52.338;21.228;2024-02-26T10:55:54;42.38;;;7.75;;
52067;SDS011;60237;52.338;21.228;2024-02-26T10:58:22;81.53;;;10.67;;
52067;SDS011;60237;52.338;21.228;2024-02-26T11:00:49;38.70;;;9.77;;
52067;SDS011;60237;52.338;21.228;2024-02-26T11:03:16;48.88;;;8.45;;
52067;SDS011;60237;52.338;21.228;2024-02-26T11:05:47;72.70;;;9.10;;
52067;SDS011;60237;52.338;21.228;2024-02-26T11:08:14;96.80;;;11.15;;
52067;SDS011;60237;52.338;21.228;2024-02-26T11:10:42;37.80;;;6.78;;
52067;SDS011;60237;52.338;21.228;2024-02-26T11:13:09;55.70;;;7.57;;
52067;SDS011;60237;52.338;21.228;2024-02-26T11:15:37;45.67;;;6.97;;
52067;SDS011;60237;52.338;21.228;2024-02-26T11:18:04;58.38;;;8.02;;
52067;SDS011;60237;52.338;21.228;2024-02-26T11:20:31;48.50;;;6.22;;
52067;SDS011;60237;52.338;21.228;2024-02-26T11:22:58;62.00;;;8.30;;
52067;SDS011;60237;52.338;21.228;2024-02-26T11:25:24;67.35;;;8.20;;
52067;SDS011;60237;52.338;21.228;2024-02-26T11:27:54;74.93;;;8.65;;
52067;SDS011;60237;52.338;21.228;2024-02-26T11:30:24;53.33;;;7.22;;
52067;SDS011;60237;52.338;21.228;2024-02-26T11:32:52;47.08;;;6.68;;
52067;SDS011;60237;52.338;21.228;2024-02-26T11:35:19;64.90;;;6.80;;
52067;SDS011;60237;52.338;21.228;2024-02-26T11:37:56;48.92;;;8.70;;
52067;SDS011;60237;52.338;21.228;2024-02-26T11:40:23;76.97;;;7.60;;
52067;SDS011;60237;52.338;21.228;2024-02-26T11:42:50;46.50;;;5.97;;
52067;SDS011;60237;52.338;21.228;2024-02-26T11:48:14;105.75;;;8.65;;
52067;SDS011;60237;52.338;21.228;2024-02-26T11:50:42;31.67;;;4.53;;
52067;SDS011;60237;52.338;21.228;2024-02-26T11:55:48;59.38;;;6.38;;
52067;SDS011;60237;52.338;21.228;2024-02-26T11:58:18;76.28;;;7.28;;
52067;SDS011;60237;52.338;21.228;2024-02-26T12:00:44;37.47;;;4.43;;
52067;SDS011;60237;52.338;21.228;2024-02-26T12:03:11;36.90;;;5.00;;
52067;SDS011;60237;52.338;21.228;2024-02-26T12:05:38;77.72;;;7.28;;
52067;SDS011;60237;52.338;21.228;2024-02-26T12:08:06;89.43;;;7.60;;
52067;SDS011;60237;52.338;21.228;2024-02-26T12:10:36;85.93;;;7.35;;
52067;SDS011;60237;52.338;21.228;2024-02-26T12:13:11;90.75;;;7.88;;
52067;SDS011;60237;52.338;21.228;2024-02-26T12:18:18;82.07;;;14.25;;
52067;SDS011;60237;52.338;21.228;2024-02-26T12:20:45;50.53;;;5.75;;
52067;SDS011;60237;52.338;21.228;2024-02-26T12:23:16;93.22;;;7.38;;
52067;SDS011;60237;52.338;21.228;2024-02-26T12:25:45;58.93;;;5.47;;
52067;SDS011;60237;52.338;21.228;2024-02-26T12:28:14;38.67;;;4.50;;
52067;SDS011;60237;52.338;21.228;2024-02-26T12:30:41;36.17;;;4.43;;
52067;SDS011;60237;52.338;21.228;2024-02-26T12:33:07;75.60;;;6.97;;
52067;SDS011;60237;52.338;21.228;2024-02-26T12:35:34;59.80;;;6.10;;
52067;SDS011;60237;52.338;21.228;2024-02-26T12:38:01;65.40;;;5.72;;
52067;SDS011;60237;52.338;21.228;2024-02-26T12:40:30;49.83;;;4.70;;
52067;SDS011;60237;52.338;21.228;2024-02-26T12:42:57;27.98;;;3.85;;
52067;SDS011;60237;52.338;21.228;2024-02-26T12:45:24;72.10;;;5.90;;
52067;SDS011;60237;52.338;21.228;2024-02-26T12:47:52;47.28;;;5.10;;
52067;SDS011;60237;52.338;21.228;2024-02-26T12:50:19;34.53;;;4.18;;
52067;SDS011;60237;52.338;21.228;2024-02-26T12:52:46;33.47;;;4.53;;
52067;SDS011;60237;52.338;21.228;2024-02-26T12:55:17;71.20;;;6.18;;
52067;SDS011;60237;52.338;21.228;2024-02-26T12:57:44;43.80;;;4.07;;
52067;SDS011;60237;52.338;21.228;2024-02-26T13:00:12;45.00;;;4.45;;
52067;SDS011;60237;52.338;21.228;2024-02-26T13:02:41;47.60;;;6.80;;
52067;SDS011;60237;52.338;21.228;2024-02-26T13:05:10;52.30;;;4.60;;
52067;SDS011;60237;52.338;21.228;2024-02-26T13:07:43;77.72;;;6.13;;
52067;SDS011;60237;52.338;21.228;2024-02-26T13:10:10;48.45;;;4.28;;
52067;SDS011;60237;52.338;21.228;2024-02-26T13:12:45;40.03;;;4.13;;
52067;SDS011;60237;52.338;21.228;2024-02-26T13:17:38;113.93;;;20.35;;
52067;SDS011;60237;52.338;21.228;2024-02-26T13:20:05;53.97;;;9.38;;
52067;SDS011;60237;52.338;21.228;2024-02-26T13:22:33;78.50;;;7.22;;
52067;SDS011;60237;52.338;21.228;2024-02-26T13:25:00;41.38;;;4.07;;
52067;SDS011;60237;52.338;21.228;2024-02-26T13:27:29;74.88;;;6.45;;
52067;SDS011;60237;52.338;21.228;2024-02-26T13:32:52;79.70;;;6.05;;
52067;SDS011;60237;52.338;21.228;2024-02-26T13:35:18;63.92;;;5.70;;
52067;SDS011;60237;52.338;21.228;2024-02-26T13:37:45;35.95;;;4.57;;
52067;SDS011;60237;52.338;21.228;2024-02-26T13:40:11;47.65;;;4.68;;
52067;SDS011;60237;52.338;21.228;2024-02-26T13:42:38;84.28;;;6.47;;
52067;SDS011;60237;52.338;21.228;2024-02-26T13:45:05;57.72;;;10.23;;
52067;SDS011;60237;52.338;21.228;2024-02-26T13:47:33;58.17;;;5.10;;
52067;SDS011;60237;52.338;21.228;2024-02-26T13:50:00;40.33;;;3.88;;
52067;SDS011;60237;52.338;21.228;2024-02-26T13:52:27;38.55;;;3.63;;
52067;SDS011;60237;52.338;21.228;2024-02-26T13:54:54;64.65;;;5.43;;
52067;SDS011;60237;52.338;21.228;2024-02-26T13:57:20;99.55;;;7.40;;
52067;SDS011;60237;52.338;21.228;2024-02-26T13:59:47;44.42;;;4.25;;
52067;SDS011;60237;52.338;21.228;2024-02-26T14:02:14;42.95;;;3.75;;
52067;SDS011;60237;52.338;21.228;2024-02-26T14:04:40;72.32;;;7.07;;
52067;SDS011;60237;52.338;21.228;2024-02-26T14:07:07;32.17;;;3.53;;
52067;SDS011;60237;52.338;21.228;2024-02-26T14:09:36;51.33;;;4.63;;
52067;SDS011;60237;52.338;21.228;2024-02-26T14:12:15;42.55;;;5.00;;
52067;SDS011;60237;52.338;21.228;2024-02-26T14:14:43;32.10;;;4.05;;
52067;SDS011;60237;52.338;21.228;2024-02-26T14:17:11;98.57;;;8.63;;
52067;SDS011;60237;52.338;21.228;2024-02-26T14:19:39;35.10;;;4.32;;
52067;SDS011;60237;52.338;21.228;2024-02-26T14:22:12;37.55;;;4.90;;
52067;SDS011;60237;52.338;21.228;2024-02-26T14:24:39;75.55;;;7.03;;